sensor_id;sensor_type;location;lat;lon;timestamp;temperature;humidity
11894;DHT22;6006;49.696;8.662;2023-05-07T00:00:35;13.10;99.90
11894;DHT22;6006;49.696;8.662;2023-05-07T00:03:02;13.10;99.90
11894;DHT22;6006;49.696;8.662;2023-05-07T00:05:30;13.10;99.90
11894;DHT22;6006;49.696;8.662;2023-05-07T00:07:57;13.10;99.90
11894;DHT22;6006;49.696;8.662;2023-05-07T00:10:24;13.10;99.90
11894;DHT22;6006;49.696;8.662;2023-05-07T00:12:51;13.10;99.90
11894;DHT22;6006;49.696;8.662;2023-05-07T00:15:18;13.10;99.90
11894;DHT22;6006;49.696;8.662;2023-05-07T00:17:45;13.10;99.90
11894;DHT22;6006;49.696;8.662;2023-05-07T00:20:12;13.10;99.90
11894;DHT22;6006;49.696;8.662;2023-05-07T00:22:40;13.10;99.90
11894;DHT22;6006;49.696;8.662;2023-05-07T00:25:07;13.10;99.90
11894;DHT22;6006;49.696;8.662;2023-05-07T00:27:35;13.10;99.90
11894;DHT22;6006;49.696;8.662;2023-05-07T00:30:02;13.10;99.90
11894;DHT22;6006;49.696;8.662;2023-05-07T00:32:29;13.10;99.90
11894;DHT22;6006;49.696;8.662;2023-05-07T00:34:56;13.10;99.90
11894;DHT22;6006;49.696;8.662;2023-05-07T00:37:23;13.10;99.90
11894;DHT22;6006;49.696;8.662;2023-05-07T00:39:51;13.10;99.90
11894;DHT22;6006;49.696;8.662;2023-05-07T00:42:18;13.20;99.90
11894;DHT22;6006;49.696;8.662;2023-05-07T00:44:45;13.20;99.90
11894;DHT22;6006;49.696;8.662;2023-05-07T00:47:12;13.20;99.90
11894;DHT22;6006;49.696;8.662;2023-05-07T00:49:42;13.20;99.90
11894;DHT22;6006;49.696;8.662;2023-05-07T00:52:10;13.30;99.90
11894;DHT22;6006;49.696;8.662;2023-05-07T00:54:38;13.30;99.90
11894;DHT22;6006;49.696;8.662;2023-05-07T00:57:06;13.30;99.90
11894;DHT22;6006;49.696;8.662;2023-05-07T00:59:33;13.30;99.90
11894;DHT22;6006;49.696;8.662;2023-05-07T01:02:00;13.30;99.90
11894;DHT22;6006;49.696;8.662;2023-05-07T01:04:27;13.50;99.90
11894;DHT22;6006;49.696;8.662;2023-05-07T01:06:55;13.60;99.90
11894;DHT22;6006;49.696;8.662;2023-05-07T01:09:23;13.70;99.90
11894;DHT22;6006;49.696;8.662;2023-05-07T01:11:50;13.70;99.90
11894;DHT22;6006;49.696;8.662;2023-05-07T01:14:20;13.70;52.20
11894;DHT22;6006;49.696;8.662;2023-05-07T01:16:47;13.70;91.50
11894;DHT22;6006;49.696;8.662;2023-05-07T01:19:14;13.60;93.80
11894;DHT22;6006;49.696;8.662;2023-05-07T01:21:46;13.60;99.90
11894;DHT22;6006;49.696;8.662;2023-05-07T01:24:14;13.50;99.90
11894;DHT22;6006;49.696;8.662;2023-05-07T01:26:42;13.40;99.90
11894;DHT22;6006;49.696;8.662;2023-05-07T01:29:09;13.30;99.90
11894;DHT22;6006;49.696;8.662;2023-05-07T01:31:37;13.30;99.90
11894;DHT22;6006;49.696;8.662;2023-05-07T01:34:07;13.20;99.90
11894;DHT22;6006;49.696;8.662;2023-05-07T01:36:36;13.10;99.90
11894;DHT22;6006;49.696;8.662;2023-05-07T01:39:04;13.00;99.90
11894;DHT22;6006;49.696;8.662;2023-05-07T01:41:33;12.90;99.90
11894;DHT22;6006;49.696;8.662;2023-05-07T01:44:00;13.00;99.90
11894;DHT22;6006;49.696;8.662;2023-05-07T01:46:28;12.80;99.90
11894;DHT22;6006;49.696;8.662;2023-05-07T01:48:55;12.80;99.90
11894;DHT22;6006;49.696;8.662;2023-05-07T01:51:22;12.70;99.90
11894;DHT22;6006;49.696;8.662;2023-05-07T01:53:49;12.60;99.90
11894;DHT22;6006;49.696;8.662;2023-05-07T01:56:16;12.60;99.90
11894;DHT22;6006;49.696;8.662;2023-05-07T01:58:45;12.60;99.90
11894;DHT22;6006;49.696;8.662;2023-05-07T02:01:13;12.60;99.90
11894;DHT22;6006;49.696;8.662;2023-05-07T02:03:40;12.50;99.90
11894;DHT22;6006;49.696;8.662;2023-05-07T02:06:07;12.40;99.90
11894;DHT22;6006;49.696;8.662;2023-05-07T02:08:34;12.40;99.90
11894;DHT22;6006;49.696;8.662;2023-05-07T02:11:01;12.40;99.90
11894;DHT22;6006;49.696;8.662;2023-05-07T02:13:30;12.40;99.90
11894;DHT22;6006;49.696;8.662;2023-05-07T02:15:58;12.30;99.90
11894;DHT22;6006;49.696;8.662;2023-05-07T02:18:25;12.30;99.90
11894;DHT22;6006;49.696;8.662;2023-05-07T02:20:52;12.20;99.90
11894;DHT22;6006;49.696;8.662;2023-05-07T02:23:19;12.20;99.90
11894;DHT22;6006;49.696;8.662;2023-05-07T02:25:45;12.20;99.90
11894;DHT22;6006;49.696;8.662;2023-05-07T02:28:12;12.20;99.90
11894;DHT22;6006;49.696;8.662;2023-05-07T02:30:39;12.20;99.90
11894;DHT22;6006;49.696;8.662;2023-05-07T02:33:08;12.20;99.90
11894;DHT22;6006;49.696;8.662;2023-05-07T02:35:35;12.10;99.90
11894;DHT22;6006;49.696;8.662;2023-05-07T02:38:02;12.10;99.90
11894;DHT22;6006;49.696;8.662;2023-05-07T02:40:29;12.10;99.90
11894;DHT22;6006;49.696;8.662;2023-05-07T02:42:59;12.10;99.90
11894;DHT22;6006;49.696;8.662;2023-05-07T02:45:26;12.10;99.90
11894;DHT22;6006;49.696;8.662;2023-05-07T02:47:53;12.10;99.90
11894;DHT22;6006;49.696;8.662;2023-05-07T02:50:22;12.10;99.90
11894;DHT22;6006;49.696;8.662;2023-05-07T02:52:49;12.10;99.90
11894;DHT22;6006;49.696;8.662;2023-05-07T02:55:15;12.10;99.90
11894;DHT22;6006;49.696;8.662;2023-05-07T02:57:42;12.10;99.90
11894;DHT22;6006;49.696;8.662;2023-05-07T03:00:14;12.10;99.90
11894;DHT22;6006;49.696;8.662;2023-05-07T03:02:41;12.10;99.90
11894;DHT22;6006;49.696;8.662;2023-05-07T03:05:08;12.10;99.90
11894;DHT22;6006;49.696;8.662;2023-05-07T03:07:36;12.10;99.90
11894;DHT22;6006;49.696;8.662;2023-05-07T03:10:04;12.10;99.90
11894;DHT22;6006;49.696;8.662;2023-05-07T03:12:31;12.00;99.90
11894;DHT22;6006;49.696;8.662;2023-05-07T03:14:58;12.00;99.90
11894;DHT22;6006;49.696;8.662;2023-05-07T03:17:25;12.00;99.90
11894;DHT22;6006;49.696;8.662;2023-05-07T03:19:52;11.90;99.90
11894;DHT22;6006;49.696;8.662;2023-05-07T03:22:19;11.90;99.90
11894;DHT22;6006;49.696;8.662;2023-05-07T03:24:47;11.90;99.90
11894;DHT22;6006;49.696;8.662;2023-05-07T03:27:14;11.90;99.90
11894;DHT22;6006;49.696;8.662;2023-05-07T03:29:40;11.90;99.90
11894;DHT22;6006;49.696;8.662;2023-05-07T03:32:07;11.90;99.90
11894;DHT22;6006;49.696;8.662;2023-05-07T03:34:34;11.90;99.90
11894;DHT22;6006;49.696;8.662;2023-05-07T03:37:01;11.90;99.90
11894;DHT22;6006;49.696;8.662;2023-05-07T03:39:28;11.90;99.90
11894;DHT22;6006;49.696;8.662;2023-05-07T03:41:57;11.90;99.90
11894;DHT22;6006;49.696;8.662;2023-05-07T03:44:24;11.90;99.90
11894;DHT22;6006;49.696;8.662;2023-05-07T03:46:51;11.90;99.90
11894;DHT22;6006;49.696;8.662;2023-05-07T03:49:17;11.90;99.90
11894;DHT22;6006;49.696;8.662;2023-05-07T03:51:44;11.90;99.90
11894;DHT22;6006;49.696;8.662;2023-05-07T03:54:11;11.90;99.90
11894;DHT22;6006;49.696;8.662;2023-05-07T03:56:38;11.80;99.90
11894;DHT22;6006;49.696;8.662;2023-05-07T03:59:07;11.80;99.90
11894;DHT22;6006;49.696;8.662;2023-05-07T04:01:34;11.80;99.90
11894;DHT22;6006;49.696;8.662;2023-05-07T04:04:01;11.80;99.90
11894;DHT22;6006;49.696;8.662;2023-05-07T04:06:28;11.70;99.90
11894;DHT22;6006;49.696;8.662;2023-05-07T04:08:55;11.80;99.90
11894;DHT22;6006;49.696;8.662;2023-05-07T04:11:22;11.80;99.90
11894;DHT22;6006;49.696;8.662;2023-05-07T04:13:49;11.80;99.90
11894;DHT22;6006;49.696;8.662;2023-05-07T04:16:17;11.80;99.90
11894;DHT22;6006;49.696;8.662;2023-05-07T04:18:44;11.80;99.90
11894;DHT22;6006;49.696;8.662;2023-05-07T04:21:14;11.80;99.90
11894;DHT22;6006;49.696;8.662;2023-05-07T04:23:41;11.80;99.90
11894;DHT22;6006;49.696;8.662;2023-05-07T04:26:08;11.90;99.90
11894;DHT22;6006;49.696;8.662;2023-05-07T04:28:35;11.90;99.90
11894;DHT22;6006;49.696;8.662;2023-05-07T04:31:02;11.90;99.90
11894;DHT22;6006;49.696;8.662;2023-05-07T04:33:30;12.00;99.90
11894;DHT22;6006;49.696;8.662;2023-05-07T04:35:58;12.00;99.90
11894;DHT22;6006;49.696;8.662;2023-05-07T04:38:28;12.10;99.90
11894;DHT22;6006;49.696;8.662;2023-05-07T04:40:55;12.20;99.90
11894;DHT22;6006;49.696;8.662;2023-05-07T04:43:22;12.30;99.90
11894;DHT22;6006;49.696;8.662;2023-05-07T04:45:50;12.40;99.90
11894;DHT22;6006;49.696;8.662;2023-05-07T04:48:17;12.40;99.90
11894;DHT22;6006;49.696;8.662;2023-05-07T04:50:47;12.50;99.90
11894;DHT22;6006;49.696;8.662;2023-05-07T04:53:14;12.60;99.90
11894;DHT22;6006;49.696;8.662;2023-05-07T04:55:41;12.70;99.90
11894;DHT22;6006;49.696;8.662;2023-05-07T04:58:08;12.70;99.90
11894;DHT22;6006;49.696;8.662;2023-05-07T05:00:35;12.80;99.90
11894;DHT22;6006;49.696;8.662;2023-05-07T05:03:01;12.90;99.90
11894;DHT22;6006;49.696;8.662;2023-05-07T05:05:28;13.00;99.90
11894;DHT22;6006;49.696;8.662;2023-05-07T05:07:57;13.10;99.90
11894;DHT22;6006;49.696;8.662;2023-05-07T05:10:23;13.20;99.90
11894;DHT22;6006;49.696;8.662;2023-05-07T05:12:50;13.30;99.90
11894;DHT22;6006;49.696;8.662;2023-05-07T05:15:17;13.50;99.90
11894;DHT22;6006;49.696;8.662;2023-05-07T05:17:44;13.60;99.90
11894;DHT22;6006;49.696;8.662;2023-05-07T05:20:11;13.70;99.90
11894;DHT22;6006;49.696;8.662;2023-05-07T05:22:38;13.80;99.90
11894;DHT22;6006;49.696;8.662;2023-05-07T05:25:07;13.90;99.90
11894;DHT22;6006;49.696;8.662;2023-05-07T05:27:34;14.00;99.90
11894;DHT22;6006;49.696;8.662;2023-05-07T05:30:01;14.10;99.90
11894;DHT22;6006;49.696;8.662;2023-05-07T05:32:28;14.20;99.90
11894;DHT22;6006;49.696;8.662;2023-05-07T05:34:55;14.40;99.90
11894;DHT22;6006;49.696;8.662;2023-05-07T05:37:22;14.50;99.90
11894;DHT22;6006;49.696;8.662;2023-05-07T05:39:49;14.70;99.90
11894;DHT22;6006;49.696;8.662;2023-05-07T05:42:17;14.90;99.90
11894;DHT22;6006;49.696;8.662;2023-05-07T05:44:44;15.00;99.90
11894;DHT22;6006;49.696;8.662;2023-05-07T05:47:11;15.20;99.90
11894;DHT22;6006;49.696;8.662;2023-05-07T05:49:37;15.40;99.90
11894;DHT22;6006;49.696;8.662;2023-05-07T05:52:04;15.60;99.90
11894;DHT22;6006;49.696;8.662;2023-05-07T05:54:31;15.70;99.90
11894;DHT22;6006;49.696;8.662;2023-05-07T05:56:58;15.80;99.90
11894;DHT22;6006;49.696;8.662;2023-05-07T05:59:27;15.80;43.20
11894;DHT22;6006;49.696;8.662;2023-05-07T06:01:54;15.90;99.90
11894;DHT22;6006;49.696;8.662;2023-05-07T06:04:20;16.00;15.70
11894;DHT22;6006;49.696;8.662;2023-05-07T06:06:50;16.10;1.00
11894;DHT22;6006;49.696;8.662;2023-05-07T06:09:20;16.20;1.00
11894;DHT22;6006;49.696;8.662;2023-05-07T06:11:47;16.30;1.00
11894;DHT22;6006;49.696;8.662;2023-05-07T06:14:14;16.40;1.00
11894;DHT22;6006;49.696;8.662;2023-05-07T06:16:43;16.50;1.00
11894;DHT22;6006;49.696;8.662;2023-05-07T06:19:10;16.60;1.00
11894;DHT22;6006;49.696;8.662;2023-05-07T06:21:39;16.70;7.70
11894;DHT22;6006;49.696;8.662;2023-05-07T06:24:07;16.80;99.90
11894;DHT22;6006;49.696;8.662;2023-05-07T06:26:34;16.90;99.90
11894;DHT22;6006;49.696;8.662;2023-05-07T06:29:00;17.00;10.70
11894;DHT22;6006;49.696;8.662;2023-05-07T06:31:30;17.10;1.00
11894;DHT22;6006;49.696;8.662;2023-05-07T06:33:59;17.30;99.90
11894;DHT22;6006;49.696;8.662;2023-05-07T06:36:27;17.40;16.40
11894;DHT22;6006;49.696;8.662;2023-05-07T06:38:54;17.50;47.20
11894;DHT22;6006;49.696;8.662;2023-05-07T06:41:21;17.50;49.40
11894;DHT22;6006;49.696;8.662;2023-05-07T06:43:48;17.70;1.00
11894;DHT22;6006;49.696;8.662;2023-05-07T06:46:16;17.70;99.90
11894;DHT22;6006;49.696;8.662;2023-05-07T06:48:43;17.80;99.90
11894;DHT22;6006;49.696;8.662;2023-05-07T06:51:11;17.90;1.00
11894;DHT22;6006;49.696;8.662;2023-05-07T06:53:38;18.00;93.80
11894;DHT22;6006;49.696;8.662;2023-05-07T06:56:05;18.00;1.00
11894;DHT22;6006;49.696;8.662;2023-05-07T06:58:32;18.10;1.00
11894;DHT22;6006;49.696;8.662;2023-05-07T07:00:59;18.20;1.00
11894;DHT22;6006;49.696;8.662;2023-05-07T07:03:25;18.20;1.00
11894;DHT22;6006;49.696;8.662;2023-05-07T07:05:52;18.20;99.90
11894;DHT22;6006;49.696;8.662;2023-05-07T07:08:22;18.40;1.00
11894;DHT22;6006;49.696;8.662;2023-05-07T07:10:48;18.40;99.90
11894;DHT22;6006;49.696;8.662;2023-05-07T07:13:15;18.50;1.00
11894;DHT22;6006;49.696;8.662;2023-05-07T07:15:43;18.50;1.00
11894;DHT22;6006;49.696;8.662;2023-05-07T07:18:10;18.60;1.00
11894;DHT22;6006;49.696;8.662;2023-05-07T07:20:37;18.60;99.90
11894;DHT22;6006;49.696;8.662;2023-05-07T07:23:04;18.50;99.90
11894;DHT22;6006;49.696;8.662;2023-05-07T07:25:32;18.50;99.90
11894;DHT22;6006;49.696;8.662;2023-05-07T07:27:59;18.50;99.90
11894;DHT22;6006;49.696;8.662;2023-05-07T07:30:25;18.50;99.90
11894;DHT22;6006;49.696;8.662;2023-05-07T07:32:52;18.50;99.90
11894;DHT22;6006;49.696;8.662;2023-05-07T07:35:19;18.50;99.90
11894;DHT22;6006;49.696;8.662;2023-05-07T07:37:47;18.40;99.90
11894;DHT22;6006;49.696;8.662;2023-05-07T07:40:15;18.40;99.90
11894;DHT22;6006;49.696;8.662;2023-05-07T07:42:43;18.40;99.90
11894;DHT22;6006;49.696;8.662;2023-05-07T07:45:10;18.50;99.90
11894;DHT22;6006;49.696;8.662;2023-05-07T07:47:38;18.50;99.90
11894;DHT22;6006;49.696;8.662;2023-05-07T07:50:05;18.60;99.90
11894;DHT22;6006;49.696;8.662;2023-05-07T07:52:33;18.70;99.90
11894;DHT22;6006;49.696;8.662;2023-05-07T07:55:00;18.70;99.90
11894;DHT22;6006;49.696;8.662;2023-05-07T07:57:27;18.70;99.90
11894;DHT22;6006;49.696;8.662;2023-05-07T07:59:55;18.80;99.90
11894;DHT22;6006;49.696;8.662;2023-05-07T08:02:22;18.80;99.90
11894;DHT22;6006;49.696;8.662;2023-05-07T08:04:49;18.80;99.90
11894;DHT22;6006;49.696;8.662;2023-05-07T08:07:16;18.70;1.00
11894;DHT22;6006;49.696;8.662;2023-05-07T08:09:44;18.70;99.90
11894;DHT22;6006;49.696;8.662;2023-05-07T08:12:11;18.60;1.00
11894;DHT22;6006;49.696;8.662;2023-05-07T08:14:37;18.60;99.90
11894;DHT22;6006;49.696;8.662;2023-05-07T08:17:06;18.60;1.00
11894;DHT22;6006;49.696;8.662;2023-05-07T08:19:35;18.60;1.00
11894;DHT22;6006;49.696;8.662;2023-05-07T08:22:02;18.60;1.00
11894;DHT22;6006;49.696;8.662;2023-05-07T08:24:29;18.60;1.00
11894;DHT22;6006;49.696;8.662;2023-05-07T08:26:56;18.60;1.00
11894;DHT22;6006;49.696;8.662;2023-05-07T08:29:23;18.70;1.00
11894;DHT22;6006;49.696;8.662;2023-05-07T08:31:50;18.70;1.00
11894;DHT22;6006;49.696;8.662;2023-05-07T08:34:18;18.70;1.00
11894;DHT22;6006;49.696;8.662;2023-05-07T08:36:45;18.80;1.00
11894;DHT22;6006;49.696;8.662;2023-05-07T08:39:14;18.90;1.00
11894;DHT22;6006;49.696;8.662;2023-05-07T08:41:44;19.00;1.00
11894;DHT22;6006;49.696;8.662;2023-05-07T08:44:12;19.10;1.00
11894;DHT22;6006;49.696;8.662;2023-05-07T08:46:41;19.20;1.00
11894;DHT22;6006;49.696;8.662;2023-05-07T08:49:08;19.10;1.00
11894;DHT22;6006;49.696;8.662;2023-05-07T08:51:37;19.00;1.00
11894;DHT22;6006;49.696;8.662;2023-05-07T08:54:04;19.10;1.00
11894;DHT22;6006;49.696;8.662;2023-05-07T08:56:32;19.30;1.00
11894;DHT22;6006;49.696;8.662;2023-05-07T08:58:59;19.40;1.00
11894;DHT22;6006;49.696;8.662;2023-05-07T09:01:26;19.50;99.90
11894;DHT22;6006;49.696;8.662;2023-05-07T09:03:53;19.50;99.90
11894;DHT22;6006;49.696;8.662;2023-05-07T09:06:20;19.60;99.90
11894;DHT22;6006;49.696;8.662;2023-05-07T09:08:53;19.80;1.00
11894;DHT22;6006;49.696;8.662;2023-05-07T09:11:20;20.00;40.00
11894;DHT22;6006;49.696;8.662;2023-05-07T09:13:48;20.00;99.90
11894;DHT22;6006;49.696;8.662;2023-05-07T09:16:15;20.20;1.00
11894;DHT22;6006;49.696;8.662;2023-05-07T09:18:43;20.30;1.00
11894;DHT22;6006;49.696;8.662;2023-05-07T09:21:10;20.40;1.00
11894;DHT22;6006;49.696;8.662;2023-05-07T09:23:37;20.40;1.00
11894;DHT22;6006;49.696;8.662;2023-05-07T09:26:06;20.70;1.00
11894;DHT22;6006;49.696;8.662;2023-05-07T09:28:38;20.90;1.00
11894;DHT22;6006;49.696;8.662;2023-05-07T09:31:06;21.20;1.00
11894;DHT22;6006;49.696;8.662;2023-05-07T09:33:33;21.40;1.00
11894;DHT22;6006;49.696;8.662;2023-05-07T09:36:02;21.50;1.00
11894;DHT22;6006;49.696;8.662;2023-05-07T09:38:30;22.00;1.00
11894;DHT22;6006;49.696;8.662;2023-05-07T09:41:02;22.10;1.00
11894;DHT22;6006;49.696;8.662;2023-05-07T09:43:33;22.20;1.00
11894;DHT22;6006;49.696;8.662;2023-05-07T09:46:03;22.20;1.00
11894;DHT22;6006;49.696;8.662;2023-05-07T09:48:36;22.50;1.00
11894;DHT22;6006;49.696;8.662;2023-05-07T09:51:06;22.60;99.90
11894;DHT22;6006;49.696;8.662;2023-05-07T09:53:35;22.40;99.90
11894;DHT22;6006;49.696;8.662;2023-05-07T09:56:03;22.30;1.00
11894;DHT22;6006;49.696;8.662;2023-05-07T09:58:33;22.40;1.00
11894;DHT22;6006;49.696;8.662;2023-05-07T10:01:03;22.20;1.00
11894;DHT22;6006;49.696;8.662;2023-05-07T10:03:32;22.10;99.90
11894;DHT22;6006;49.696;8.662;2023-05-07T10:06:00;22.50;99.90
11894;DHT22;6006;49.696;8.662;2023-05-07T10:08:28;22.90;99.90
11894;DHT22;6006;49.696;8.662;2023-05-07T10:10:57;23.30;1.00
11894;DHT22;6006;49.696;8.662;2023-05-07T10:13:24;23.40;99.90
11894;DHT22;6006;49.696;8.662;2023-05-07T10:15:52;23.30;99.90
11894;DHT22;6006;49.696;8.662;2023-05-07T10:18:20;23.20;99.90
11894;DHT22;6006;49.696;8.662;2023-05-07T10:20:51;23.40;99.90
11894;DHT22;6006;49.696;8.662;2023-05-07T10:23:23;23.20;99.90
11894;DHT22;6006;49.696;8.662;2023-05-07T10:25:50;23.60;99.90
11894;DHT22;6006;49.696;8.662;2023-05-07T10:28:17;23.90;99.90
11894;DHT22;6006;49.696;8.662;2023-05-07T10:30:58;24.00;99.90
11894;DHT22;6006;49.696;8.662;2023-05-07T10:33:29;23.80;99.90
11894;DHT22;6006;49.696;8.662;2023-05-07T10:35:59;23.10;99.90
11894;DHT22;6006;49.696;8.662;2023-05-07T10:38:27;23.20;99.90
11894;DHT22;6006;49.696;8.662;2023-05-07T10:40:54;23.40;99.90
11894;DHT22;6006;49.696;8.662;2023-05-07T10:43:21;23.60;99.90
11894;DHT22;6006;49.696;8.662;2023-05-07T10:46:13;23.60;99.90
11894;DHT22;6006;49.696;8.662;2023-05-07T10:49:08;24.00;99.90
11894;DHT22;6006;49.696;8.662;2023-05-07T10:51:37;23.40;99.90
11894;DHT22;6006;49.696;8.662;2023-05-07T10:54:23;23.30;1.00
11894;DHT22;6006;49.696;8.662;2023-05-07T10:56:52;23.00;99.90
11894;DHT22;6006;49.696;8.662;2023-05-07T10:59:34;23.20;99.90
11894;DHT22;6006;49.696;8.662;2023-05-07T11:02:09;23.60;99.90
11894;DHT22;6006;49.696;8.662;2023-05-07T11:04:37;24.10;99.90
11894;DHT22;6006;49.696;8.662;2023-05-07T11:07:31;24.30;99.90
11894;DHT22;6006;49.696;8.662;2023-05-07T11:10:02;24.40;99.90
11894;DHT22;6006;49.696;8.662;2023-05-07T11:12:52;25.10;99.90
11894;DHT22;6006;49.696;8.662;2023-05-07T11:15:40;26.00;99.90
11894;DHT22;6006;49.696;8.662;2023-05-07T11:18:10;26.50;99.90
11894;DHT22;6006;49.696;8.662;2023-05-07T11:20:54;27.00;99.90
11894;DHT22;6006;49.696;8.662;2023-05-07T11:26:45;26.00;99.90
11894;DHT22;6006;49.696;8.662;2023-05-07T11:29:13;25.70;99.90
11894;DHT22;6006;49.696;8.662;2023-05-07T11:31:40;25.70;99.90
11894;DHT22;6006;49.696;8.662;2023-05-07T11:34:08;25.30;99.90
11894;DHT22;6006;49.696;8.662;2023-05-07T11:36:39;24.90;99.90
11894;DHT22;6006;49.696;8.662;2023-05-07T11:39:26;25.30;99.90
11894;DHT22;6006;49.696;8.662;2023-05-07T11:41:53;25.70;99.90
11894;DHT22;6006;49.696;8.662;2023-05-07T11:44:20;25.30;99.90
11894;DHT22;6006;49.696;8.662;2023-05-07T11:46:47;24.20;99.90
11894;DHT22;6006;49.696;8.662;2023-05-07T11:49:16;23.80;99.90
11894;DHT22;6006;49.696;8.662;2023-05-07T11:51:43;23.90;99.90
11894;DHT22;6006;49.696;8.662;2023-05-07T11:54:15;23.80;99.90
11894;DHT22;6006;49.696;8.662;2023-05-07T11:56:43;23.80;99.90
11894;DHT22;6006;49.696;8.662;2023-05-07T11:59:10;24.10;99.90
11894;DHT22;6006;49.696;8.662;2023-05-07T12:01:37;24.70;99.90
11894;DHT22;6006;49.696;8.662;2023-05-07T12:04:04;25.70;99.90
11894;DHT22;6006;49.696;8.662;2023-05-07T12:06:36;26.10;99.90
11894;DHT22;6006;49.696;8.662;2023-05-07T12:09:04;26.20;99.90
11894;DHT22;6006;49.696;8.662;2023-05-07T12:11:32;26.40;99.90
11894;DHT22;6006;49.696;8.662;2023-05-07T12:13:59;26.00;99.90
11894;DHT22;6006;49.696;8.662;2023-05-07T12:16:26;25.10;99.90
11894;DHT22;6006;49.696;8.662;2023-05-07T12:18:53;25.60;99.90
11894;DHT22;6006;49.696;8.662;2023-05-07T12:21:20;26.10;99.90
11894;DHT22;6006;49.696;8.662;2023-05-07T12:23:49;26.10;99.90
11894;DHT22;6006;49.696;8.662;2023-05-07T12:26:16;25.60;99.90
11894;DHT22;6006;49.696;8.662;2023-05-07T12:28:43;25.10;99.90
11894;DHT22;6006;49.696;8.662;2023-05-07T12:31:10;25.40;99.90
11894;DHT22;6006;49.696;8.662;2023-05-07T12:33:37;25.60;99.90
11894;DHT22;6006;49.696;8.662;2023-05-07T12:36:05;25.50;99.90
11894;DHT22;6006;49.696;8.662;2023-05-07T12:38:35;26.00;99.90
11894;DHT22;6006;49.696;8.662;2023-05-07T12:41:05;26.10;99.90
11894;DHT22;6006;49.696;8.662;2023-05-07T12:43:32;26.30;99.90
11894;DHT22;6006;49.696;8.662;2023-05-07T12:46:01;26.50;99.90
11894;DHT22;6006;49.696;8.662;2023-05-07T12:48:28;25.70;99.90
11894;DHT22;6006;49.696;8.662;2023-05-07T12:50:56;25.10;99.90
11894;DHT22;6006;49.696;8.662;2023-05-07T12:53:24;25.40;99.90
11894;DHT22;6006;49.696;8.662;2023-05-07T12:55:52;26.10;99.90
11894;DHT22;6006;49.696;8.662;2023-05-07T12:58:24;26.70;99.90
11894;DHT22;6006;49.696;8.662;2023-05-07T13:00:52;26.60;99.90
11894;DHT22;6006;49.696;8.662;2023-05-07T13:03:23;26.60;99.90
11894;DHT22;6006;49.696;8.662;2023-05-07T13:05:50;26.70;99.90
11894;DHT22;6006;49.696;8.662;2023-05-07T13:08:28;25.90;99.90
11894;DHT22;6006;49.696;8.662;2023-05-07T13:10:56;25.30;99.90
11894;DHT22;6006;49.696;8.662;2023-05-07T13:13:25;25.10;99.90
11894;DHT22;6006;49.696;8.662;2023-05-07T13:15:52;24.90;99.90
11894;DHT22;6006;49.696;8.662;2023-05-07T13:18:18;24.80;99.90
11894;DHT22;6006;49.696;8.662;2023-05-07T13:20:45;24.10;99.90
11894;DHT22;6006;49.696;8.662;2023-05-07T13:23:12;23.80;99.90
11894;DHT22;6006;49.696;8.662;2023-05-07T13:25:39;23.60;99.90
11894;DHT22;6006;49.696;8.662;2023-05-07T13:28:06;23.60;99.90
11894;DHT22;6006;49.696;8.662;2023-05-07T13:30:34;23.60;99.90
11894;DHT22;6006;49.696;8.662;2023-05-07T13:33:01;23.70;99.90
11894;DHT22;6006;49.696;8.662;2023-05-07T13:35:28;23.60;99.90
11894;DHT22;6006;49.696;8.662;2023-05-07T13:37:55;23.70;99.90
11894;DHT22;6006;49.696;8.662;2023-05-07T13:40:22;23.80;99.90
11894;DHT22;6006;49.696;8.662;2023-05-07T13:42:49;23.70;99.90
11894;DHT22;6006;49.696;8.662;2023-05-07T13:45:17;23.60;99.90
11894;DHT22;6006;49.696;8.662;2023-05-07T13:47:45;23.40;99.90
11894;DHT22;6006;49.696;8.662;2023-05-07T13:50:14;23.20;99.90
11894;DHT22;6006;49.696;8.662;2023-05-07T13:52:42;23.20;99.90
11894;DHT22;6006;49.696;8.662;2023-05-07T13:55:11;22.90;99.90
11894;DHT22;6006;49.696;8.662;2023-05-07T13:57:38;22.80;99.90
11894;DHT22;6006;49.696;8.662;2023-05-07T14:00:06;22.80;99.90
11894;DHT22;6006;49.696;8.662;2023-05-07T14:02:33;22.70;99.90
11894;DHT22;6006;49.696;8.662;2023-05-07T14:05:02;22.70;99.90
11894;DHT22;6006;49.696;8.662;2023-05-07T14:07:29;22.60;99.90
11894;DHT22;6006;49.696;8.662;2023-05-07T14:09:56;22.60;99.90
11894;DHT22;6006;49.696;8.662;2023-05-07T14:12:24;22.60;99.90
11894;DHT22;6006;49.696;8.662;2023-05-07T14:14:50;22.50;99.90
11894;DHT22;6006;49.696;8.662;2023-05-07T14:17:18;22.50;1.00
11894;DHT22;6006;49.696;8.662;2023-05-07T14:19:45;22.50;1.00
11894;DHT22;6006;49.696;8.662;2023-05-07T14:22:14;22.50;1.00
11894;DHT22;6006;49.696;8.662;2023-05-07T14:24:41;22.50;1.00
11894;DHT22;6006;49.696;8.662;2023-05-07T14:27:08;22.50;99.90
11894;DHT22;6006;49.696;8.662;2023-05-07T14:29:34;22.40;1.00
11894;DHT22;6006;49.696;8.662;2023-05-07T14:32:01;22.30;1.00
11894;DHT22;6006;49.696;8.662;2023-05-07T14:34:28;22.20;1.00
11894;DHT22;6006;49.696;8.662;2023-05-07T14:36:55;22.10;1.00
11894;DHT22;6006;49.696;8.662;2023-05-07T14:39:23;22.10;1.00
11894;DHT22;6006;49.696;8.662;2023-05-07T14:41:51;22.00;1.00
11894;DHT22;6006;49.696;8.662;2023-05-07T14:44:20;21.90;1.00
11894;DHT22;6006;49.696;8.662;2023-05-07T14:46:46;21.90;1.00
11894;DHT22;6006;49.696;8.662;2023-05-07T14:49:14;21.90;1.00
11894;DHT22;6006;49.696;8.662;2023-05-07T14:51:42;21.80;1.00
11894;DHT22;6006;49.696;8.662;2023-05-07T14:54:09;21.70;1.00
11894;DHT22;6006;49.696;8.662;2023-05-07T14:56:38;21.60;1.00
11894;DHT22;6006;49.696;8.662;2023-05-07T14:59:05;21.50;1.00
11894;DHT22;6006;49.696;8.662;2023-05-07T15:01:32;21.40;1.00
11894;DHT22;6006;49.696;8.662;2023-05-07T15:04:00;21.30;1.00
11894;DHT22;6006;49.696;8.662;2023-05-07T15:06:27;21.30;1.00
11894;DHT22;6006;49.696;8.662;2023-05-07T15:08:54;21.30;1.00
11894;DHT22;6006;49.696;8.662;2023-05-07T15:11:21;21.10;1.00
11894;DHT22;6006;49.696;8.662;2023-05-07T15:13:49;21.00;99.90
11894;DHT22;6006;49.696;8.662;2023-05-07T15:16:16;20.20;1.00
11894;DHT22;6006;49.696;8.662;2023-05-07T15:18:43;19.70;1.00
11894;DHT22;6006;49.696;8.662;2023-05-07T15:21:10;19.40;1.00
11894;DHT22;6006;49.696;8.662;2023-05-07T15:23:37;18.90;99.90
11894;DHT22;6006;49.696;8.662;2023-05-07T15:26:04;18.60;1.00
11894;DHT22;6006;49.696;8.662;2023-05-07T15:28:33;18.10;1.00
11894;DHT22;6006;49.696;8.662;2023-05-07T15:31:01;17.10;99.90
11894;DHT22;6006;49.696;8.662;2023-05-07T15:33:28;17.20;99.90
11894;DHT22;6006;49.696;8.662;2023-05-07T15:35:54;17.20;99.90
11894;DHT22;6006;49.696;8.662;2023-05-07T15:38:24;16.80;99.90
11894;DHT22;6006;49.696;8.662;2023-05-07T15:40:51;16.70;99.90
11894;DHT22;6006;49.696;8.662;2023-05-07T15:43:18;16.50;99.90
11894;DHT22;6006;49.696;8.662;2023-05-07T15:45:44;16.30;99.90
11894;DHT22;6006;49.696;8.662;2023-05-07T15:48:13;16.10;99.90
11894;DHT22;6006;49.696;8.662;2023-05-07T15:50:39;16.10;99.90
11894;DHT22;6006;49.696;8.662;2023-05-07T15:53:06;16.00;99.90
11894;DHT22;6006;49.696;8.662;2023-05-07T15:55:33;16.10;99.90
11894;DHT22;6006;49.696;8.662;2023-05-07T15:58:00;16.00;99.90